Ilha Comprida, Brazil
Current Conditions -  °F | °C
As of 12:00 PM on Tuesday 27 Jan 2015 (Local Time) from SBCT Reporting Station
Broken Clouds Broken Clouds  
Wind Chill: 79°   Ceiling: 3000
Heat Index: 81°   Visibility: 6mi
Dew Point: 64°   Wind: 10mph
Humidity: 61%   Direction: 320°NW
Pressure: 30.09"   Gusts: NA
Location:  24.88°S, 47.69°W
Report Text: SBCT 271400Z 32009KT 9999 BKN030 26/18 Q1019
Loading
Personal Weather Stations






























Interactive Weather Map New forecast layout! Learn more

10-Day Weather Forecast

Advertisements
Track Severe Weather on mobile